RYR2ZX EGSS-LERS
Flight info
| Callsign | RYR2ZX |
|---|---|
| Flight time | 1h 53m |
| Altitude | 33000 |
| Route | NUGBO M183 SILVA Q41 COWLY UT71 VAPID UN859 SOPIL DCT BALAN DCT EVPOK DCT NARAK DCT GAI DCT LOMRA DCT ROCAN DCT PUMAL N31 BERGA |
| Aircraft | B738/M-SDE2E3FGHIRWXY/LB1 |
Departure
| Time | 2026-05-09 10:12 |
|---|---|
| Airport | London Stansted Airport (EGSS) |
Arrival
| Time | 2026-05-09 12:06 |
|---|---|
| Airport | Reus Airport (LERS) |
| Time | Latitude | Longitude | Altitude | Speed | Heading |
|---|---|---|---|---|---|
| 2026-05-09 08:47 | 51.89182 | 0.25438 | 351 ft | 0 kts | 57° |
| 2026-05-09 09:59 | 51.89179 | 0.25431 | 351 ft | 4 kts | 57° |
| 2026-05-09 09:59 | 51.89167 | 0.25401 | 355 ft | 4 kts | 54° |
| 2026-05-09 09:59 | 51.89152 | 0.25382 | 357 ft | 4 kts | 339° |
| 2026-05-09 09:59 | 51.89133 | 0.25406 | 361 ft | 4 kts | 313° |
| 2026-05-09 10:00 | 51.89124 | 0.25422 | 351 ft | 0 kts | 313° |
| 2026-05-09 10:04 | 51.89124 | 0.25421 | 351 ft | 1 kts | 313° |
| 2026-05-09 10:04 | 51.89135 | 0.25402 | 358 ft | 4 kts | 313° |
| 2026-05-09 10:04 | 51.89166 | 0.25346 | 351 ft | 9 kts | 306° |
| 2026-05-09 10:05 | 51.89151 | 0.25241 | 355 ft | 12 kts | 225° |
| 2026-05-09 10:05 | 51.89079 | 0.25132 | 351 ft | 16 kts | 223° |
| 2026-05-09 10:05 | 51.88989 | 0.24997 | 356 ft | 19 kts | 223° |
| 2026-05-09 10:05 | 51.88886 | 0.24842 | 358 ft | 22 kts | 223° |
| 2026-05-09 10:06 | 51.88769 | 0.24668 | 351 ft | 24 kts | 223° |
| 2026-05-09 10:06 | 51.88652 | 0.24492 | 350 ft | 22 kts | 223° |
| 2026-05-09 10:06 | 51.88529 | 0.24308 | 350 ft | 25 kts | 223° |
| 2026-05-09 10:06 | 51.88403 | 0.24118 | 346 ft | 24 kts | 223° |
| 2026-05-09 10:07 | 51.88287 | 0.23943 | 344 ft | 23 kts | 223° |
| 2026-05-09 10:07 | 51.88171 | 0.23770 | 340 ft | 23 kts | 223° |
| 2026-05-09 10:07 | 51.88055 | 0.23596 | 337 ft | 22 kts | 223° |
| 2026-05-09 10:07 | 51.87941 | 0.23424 | 338 ft | 22 kts | 223° |
| 2026-05-09 10:08 | 51.87831 | 0.23260 | 339 ft | 21 kts | 223° |
| 2026-05-09 10:08 | 51.87738 | 0.23119 | 337 ft | 10 kts | 223° |
| 2026-05-09 10:08 | 51.87734 | 0.23032 | 336 ft | 9 kts | 301° |
| 2026-05-09 10:08 | 51.87778 | 0.22951 | 339 ft | 9 kts | 305° |
| 2026-05-09 10:09 | 51.87752 | 0.22843 | 336 ft | 14 kts | 223° |
| 2026-05-09 10:09 | 51.87669 | 0.22719 | 336 ft | 18 kts | 223° |
| 2026-05-09 10:09 | 51.87563 | 0.22559 | 328 ft | 24 kts | 223° |
| 2026-05-09 10:09 | 51.87436 | 0.22370 | 328 ft | 21 kts | 223° |
| 2026-05-09 10:10 | 51.87399 | 0.22241 | 326 ft | 12 kts | 282° |
| 2026-05-09 10:10 | 51.87430 | 0.22155 | 323 ft | 8 kts | 312° |
| 2026-05-09 10:10 | 51.87459 | 0.22104 | 322 ft | 7 kts | 312° |
| 2026-05-09 10:10 | 51.87490 | 0.22048 | 321 ft | 7 kts | 312° |
| 2026-05-09 10:11 | 51.87530 | 0.22027 | 322 ft | 7 kts | 25° |
| 2026-05-09 10:11 | 51.87546 | 0.22049 | 321 ft | 0 kts | 41° |
| 2026-05-09 10:11 | 51.87566 | 0.22079 | 322 ft | 23 kts | 42° |
| 2026-05-09 10:11 | 51.87876 | 0.22542 | 330 ft | 95 kts | 43° |
| 2026-05-09 10:12 | 51.88515 | 0.23503 | 347 ft | 154 kts | 42° |
| 2026-05-09 10:12 | 51.89407 | 0.24829 | 758 ft | 173 kts | 43° |
| 2026-05-09 10:12 | 51.90265 | 0.26123 | 1666 ft | 173 kts | 44° |
| 2026-05-09 10:12 | 51.91187 | 0.27530 | 2166 ft | 190 kts | 45° |
| 2026-05-09 10:13 | 51.92228 | 0.29047 | 2326 ft | 213 kts | 38° |
| 2026-05-09 10:13 | 51.93668 | 0.29968 | 2511 ft | 236 kts | 7° |
| 2026-05-09 10:13 | 51.95350 | 0.29532 | 2774 ft | 259 kts | 335° |
| 2026-05-09 10:13 | 51.96698 | 0.27558 | 3410 ft | 267 kts | 303° |
| 2026-05-09 10:14 | 51.97296 | 0.24691 | 4065 ft | 272 kts | 280° |
| 2026-05-09 10:14 | 51.97549 | 0.21630 | 4744 ft | 276 kts | 277° |
| 2026-05-09 10:14 | 51.97795 | 0.18490 | 5461 ft | 277 kts | 277° |
| 2026-05-09 10:14 | 51.98040 | 0.15381 | 6129 ft | 280 kts | 277° |
| 2026-05-09 10:15 | 51.98342 | 0.12256 | 6914 ft | 278 kts | 279° |
| 2026-05-09 10:15 | 51.98662 | 0.09163 | 7662 ft | 279 kts | 279° |
| 2026-05-09 10:15 | 51.98932 | 0.06034 | 8363 ft | 281 kts | 269° |
| 2026-05-09 10:15 | 51.98627 | 0.02912 | 9135 ft | 281 kts | 256° |
| 2026-05-09 10:16 | 51.98190 | -0.00187 | 9857 ft | 284 kts | 257° |
| 2026-05-09 10:16 | 51.97764 | -0.03385 | 10491 ft | 290 kts | 257° |
| 2026-05-09 10:16 | 51.97350 | -0.06678 | 10658 ft | 313 kts | 258° |
| 2026-05-09 10:16 | 51.96870 | -0.10301 | 10874 ft | 332 kts | 257° |
| 2026-05-09 10:17 | 51.96343 | -0.14029 | 11277 ft | 344 kts | 256° |
| 2026-05-09 10:17 | 51.95987 | -0.16508 | 11734 ft | 345 kts | 257° |
| 2026-05-09 10:17 | 51.95476 | -0.20408 | 12515 ft | 346 kts | 258° |
| 2026-05-09 10:17 | 51.94989 | -0.24275 | 13287 ft | 348 kts | 258° |
| 2026-05-09 10:18 | 51.94496 | -0.28186 | 14062 ft | 350 kts | 258° |
| 2026-05-09 10:18 | 51.93992 | -0.32068 | 14680 ft | 355 kts | 257° |
| 2026-05-09 10:18 | 51.93477 | -0.36022 | 15315 ft | 359 kts | 258° |
| 2026-05-09 10:18 | 51.92969 | -0.40029 | 15902 ft | 364 kts | 257° |
| 2026-05-09 10:19 | 51.92419 | -0.44106 | 16627 ft | 367 kts | 256° |
| 2026-05-09 10:19 | 51.91862 | -0.48223 | 17272 ft | 371 kts | 256° |
| 2026-05-09 10:19 | 51.91310 | -0.52324 | 17877 ft | 376 kts | 257° |
| 2026-05-09 10:19 | 51.90744 | -0.56477 | 18532 ft | 379 kts | 256° |
| 2026-05-09 10:20 | 51.90186 | -0.60660 | 19082 ft | 382 kts | 256° |
| 2026-05-09 10:20 | 51.89636 | -0.64893 | 19614 ft | 386 kts | 257° |
| 2026-05-09 10:20 | 51.89079 | -0.69163 | 20132 ft | 390 kts | 256° |
| 2026-05-09 10:20 | 51.88494 | -0.73464 | 20682 ft | 393 kts | 255° |
| 2026-05-09 10:21 | 51.87901 | -0.77795 | 21251 ft | 395 kts | 255° |
| 2026-05-09 10:21 | 51.87298 | -0.82226 | 21787 ft | 399 kts | 255° |
| 2026-05-09 10:21 | 51.86707 | -0.86556 | 22292 ft | 402 kts | 255° |
| 2026-05-09 10:21 | 51.86089 | -0.91053 | 22815 ft | 405 kts | 254° |
| 2026-05-09 10:22 | 51.85101 | -0.95295 | 23280 ft | 404 kts | 235° |
| 2026-05-09 10:22 | 51.83295 | -0.98651 | 23763 ft | 402 kts | 217° |
| 2026-05-09 10:22 | 51.80911 | -1.01100 | 24187 ft | 402 kts | 203° |
| 2026-05-09 10:22 | 51.78234 | -1.02368 | 24619 ft | 402 kts | 189° |
| 2026-05-09 10:23 | 51.75466 | -1.03091 | 25099 ft | 402 kts | 186° |
| 2026-05-09 10:23 | 51.72695 | -1.03752 | 25543 ft | 404 kts | 187° |
| 2026-05-09 10:23 | 51.69912 | -1.04402 | 25972 ft | 405 kts | 187° |
| 2026-05-09 10:23 | 51.67120 | -1.05071 | 26402 ft | 406 kts | 187° |
| 2026-05-09 10:24 | 51.64319 | -1.05777 | 26836 ft | 407 kts | 187° |
| 2026-05-09 10:24 | 51.61517 | -1.06419 | 27253 ft | 408 kts | 184° |
| 2026-05-09 10:24 | 51.58678 | -1.06452 | 27702 ft | 407 kts | 176° |
| 2026-05-09 10:24 | 51.55862 | -1.06244 | 28306 ft | 403 kts | 176° |
| 2026-05-09 10:25 | 51.53079 | -1.06042 | 28996 ft | 398 kts | 176° |
| 2026-05-09 10:25 | 51.50343 | -1.05861 | 29635 ft | 394 kts | 176° |
| 2026-05-09 10:25 | 51.47608 | -1.05695 | 30184 ft | 391 kts | 176° |
| 2026-05-09 10:25 | 51.44897 | -1.05540 | 30604 ft | 390 kts | 176° |
| 2026-05-09 10:26 | 51.42185 | -1.05390 | 30994 ft | 389 kts | 176° |
| 2026-05-09 10:26 | 51.39482 | -1.05241 | 31408 ft | 387 kts | 176° |
| 2026-05-09 10:26 | 51.36793 | -1.05091 | 31844 ft | 385 kts | 176° |
| 2026-05-09 10:26 | 51.34120 | -1.04942 | 32258 ft | 384 kts | 176° |
| 2026-05-09 10:27 | 51.31491 | -1.04805 | 32636 ft | 383 kts | 176° |
| 2026-05-09 10:27 | 51.28805 | -1.04664 | 33040 ft | 381 kts | 175° |
| 2026-05-09 10:27 | 51.26159 | -1.04189 | 33059 ft | 385 kts | 167° |
| 2026-05-09 10:28 | 51.21096 | -1.01462 | 33114 ft | 383 kts | 155° |
| 2026-05-09 10:28 | 51.16305 | -0.97919 | 33107 ft | 378 kts | 155° |
| 2026-05-09 10:29 | 51.11518 | -0.94412 | 33078 ft | 379 kts | 156° |
| 2026-05-09 10:29 | 51.06711 | -0.90928 | 33113 ft | 380 kts | 156° |
| 2026-05-09 10:30 | 51.01917 | -0.87470 | 33114 ft | 382 kts | 156° |
| 2026-05-09 10:30 | 50.97047 | -0.83967 | 33101 ft | 383 kts | 156° |
| 2026-05-09 10:31 | 50.92141 | -0.80448 | 33106 ft | 392 kts | 156° |
| 2026-05-09 10:31 | 50.87088 | -0.76827 | 33149 ft | 404 kts | 156° |
| 2026-05-09 10:32 | 50.82134 | -0.72362 | 33314 ft | 414 kts | 148° |
| 2026-05-09 10:32 | 50.79710 | -0.69850 | 33481 ft | 416 kts | 148° |
| 2026-05-09 10:32 | 50.77293 | -0.67353 | 33756 ft | 415 kts | 148° |
| 2026-05-09 10:32 | 50.74876 | -0.64871 | 34103 ft | 412 kts | 148° |
| 2026-05-09 10:33 | 50.72471 | -0.62414 | 34335 ft | 412 kts | 148° |
| 2026-05-09 10:33 | 50.70055 | -0.59957 | 34460 ft | 414 kts | 148° |
| 2026-05-09 10:33 | 50.67629 | -0.57496 | 34583 ft | 416 kts | 148° |
| 2026-05-09 10:33 | 50.65188 | -0.55026 | 34742 ft | 417 kts | 148° |
| 2026-05-09 10:34 | 50.62748 | -0.52560 | 34960 ft | 416 kts | 148° |
| 2026-05-09 10:34 | 50.57858 | -0.47628 | 35080 ft | 420 kts | 148° |
| 2026-05-09 10:34 | 50.55398 | -0.45151 | 35089 ft | 420 kts | 148° |
| 2026-05-09 10:35 | 50.50491 | -0.40218 | 35080 ft | 417 kts | 149° |
| 2026-05-09 10:35 | 50.45618 | -0.35333 | 35085 ft | 416 kts | 149° |
| 2026-05-09 10:36 | 50.40730 | -0.30445 | 35085 ft | 416 kts | 149° |
| 2026-05-09 10:36 | 50.35815 | -0.25542 | 35086 ft | 416 kts | 149° |
| 2026-05-09 10:37 | 50.30928 | -0.20679 | 35079 ft | 416 kts | 149° |
| 2026-05-09 10:37 | 50.26032 | -0.15820 | 35080 ft | 417 kts | 149° |
| 2026-05-09 10:38 | 50.21129 | -0.10967 | 35076 ft | 417 kts | 149° |
| 2026-05-09 10:38 | 50.16219 | -0.06119 | 35072 ft | 418 kts | 149° |
| 2026-05-09 10:39 | 50.11264 | -0.01336 | 35068 ft | 419 kts | 153° |
| 2026-05-09 10:39 | 50.05819 | 0.01764 | 35078 ft | 417 kts | 166° |
| 2026-05-09 10:40 | 50.00174 | 0.03915 | 35072 ft | 418 kts | 166° |
| 2026-05-09 10:40 | 49.94539 | 0.06095 | 35052 ft | 419 kts | 165° |
| 2026-05-09 10:41 | 49.88841 | 0.08319 | 35063 ft | 420 kts | 165° |
| 2026-05-09 10:41 | 49.84110 | 0.10166 | 35054 ft | 420 kts | 165° |
| 2026-05-09 10:42 | 49.78402 | 0.12388 | 35046 ft | 421 kts | 165° |
| 2026-05-09 10:42 | 49.72721 | 0.14593 | 35040 ft | 422 kts | 166° |
| 2026-05-09 10:43 | 49.67030 | 0.16807 | 35048 ft | 422 kts | 165° |
| 2026-05-09 10:43 | 49.61336 | 0.19115 | 35052 ft | 423 kts | 165° |
| 2026-05-09 10:44 | 49.55602 | 0.21456 | 35050 ft | 424 kts | 165° |
| 2026-05-09 10:44 | 49.49735 | 0.23817 | 35049 ft | 424 kts | 166° |
| 2026-05-09 10:46 | 49.35364 | 0.29602 | 35052 ft | 427 kts | 166° |
| 2026-05-09 10:46 | 49.29613 | 0.31913 | 35042 ft | 427 kts | 166° |
| 2026-05-09 10:47 | 49.23870 | 0.34329 | 35038 ft | 428 kts | 165° |
| 2026-05-09 10:47 | 49.18117 | 0.36770 | 35019 ft | 429 kts | 165° |
| 2026-05-09 10:48 | 49.12360 | 0.39193 | 35014 ft | 429 kts | 165° |
| 2026-05-09 10:48 | 49.06597 | 0.41592 | 34990 ft | 430 kts | 167° |
| 2026-05-09 10:49 | 49.00804 | 0.44006 | 34984 ft | 433 kts | 167° |
| 2026-05-09 10:49 | 48.94786 | 0.46516 | 35007 ft | 435 kts | 167° |
| 2026-05-09 10:50 | 48.88844 | 0.48981 | 35009 ft | 437 kts | 167° |
| 2026-05-09 10:50 | 48.82967 | 0.51410 | 35007 ft | 438 kts | 167° |
| 2026-05-09 10:51 | 48.77037 | 0.53843 | 35006 ft | 439 kts | 167° |
| 2026-05-09 10:51 | 48.71119 | 0.56161 | 35001 ft | 439 kts | 168° |
| 2026-05-09 10:52 | 48.65206 | 0.58454 | 34998 ft | 438 kts | 168° |
| 2026-05-09 10:52 | 48.59332 | 0.60737 | 34996 ft | 438 kts | 168° |
| 2026-05-09 10:53 | 48.53382 | 0.63050 | 34995 ft | 438 kts | 168° |
| 2026-05-09 10:53 | 48.47443 | 0.65416 | 34992 ft | 439 kts | 168° |
| 2026-05-09 10:54 | 48.42467 | 0.67458 | 34989 ft | 438 kts | 168° |
| 2026-05-09 10:54 | 48.36538 | 0.69874 | 34991 ft | 438 kts | 168° |
| 2026-05-09 10:55 | 48.30654 | 0.72249 | 34986 ft | 438 kts | 169° |
| 2026-05-09 10:55 | 48.24766 | 0.74623 | 34986 ft | 438 kts | 169° |
| 2026-05-09 10:56 | 48.18883 | 0.76956 | 34983 ft | 437 kts | 169° |
| 2026-05-09 10:56 | 48.12959 | 0.79285 | 34972 ft | 437 kts | 169° |
| 2026-05-09 10:57 | 48.07101 | 0.81582 | 34981 ft | 437 kts | 169° |
| 2026-05-09 10:57 | 48.01190 | 0.83896 | 34977 ft | 437 kts | 169° |
| 2026-05-09 10:58 | 47.95306 | 0.86193 | 34975 ft | 437 kts | 170° |
| 2026-05-09 10:58 | 47.89408 | 0.88488 | 34973 ft | 438 kts | 170° |
| 2026-05-09 10:59 | 47.83504 | 0.90784 | 34978 ft | 439 kts | 170° |
| 2026-05-09 10:59 | 47.77632 | 0.93065 | 34973 ft | 439 kts | 170° |
| 2026-05-09 11:00 | 47.71637 | 0.95386 | 34970 ft | 439 kts | 171° |
| 2026-05-09 11:00 | 47.65733 | 0.97663 | 34975 ft | 438 kts | 171° |
| 2026-05-09 11:01 | 47.59825 | 0.99933 | 34974 ft | 438 kts | 171° |
| 2026-05-09 11:01 | 47.53929 | 1.02192 | 34970 ft | 438 kts | 171° |
| 2026-05-09 11:02 | 47.47993 | 1.04462 | 34968 ft | 437 kts | 171° |
| 2026-05-09 11:02 | 47.41954 | 1.06376 | 34965 ft | 430 kts | 180° |
| 2026-05-09 11:03 | 47.36025 | 1.06349 | 34957 ft | 425 kts | 186° |
| 2026-05-09 11:03 | 47.30148 | 1.06153 | 34965 ft | 424 kts | 186° |
| 2026-05-09 11:04 | 47.24205 | 1.05998 | 34970 ft | 424 kts | 185° |
| 2026-05-09 11:04 | 47.18303 | 1.05863 | 34970 ft | 424 kts | 185° |
| 2026-05-09 11:05 | 47.12410 | 1.05731 | 34970 ft | 423 kts | 185° |
| 2026-05-09 11:05 | 47.06515 | 1.05596 | 34966 ft | 423 kts | 185° |
| 2026-05-09 11:06 | 47.00632 | 1.05451 | 34964 ft | 422 kts | 186° |
| 2026-05-09 11:06 | 46.94763 | 1.05204 | 34962 ft | 421 kts | 186° |
| 2026-05-09 11:07 | 46.88896 | 1.04934 | 34965 ft | 421 kts | 186° |
| 2026-05-09 11:07 | 46.83037 | 1.04673 | 34964 ft | 421 kts | 186° |
| 2026-05-09 11:08 | 46.77190 | 1.04418 | 34964 ft | 421 kts | 186° |
| 2026-05-09 11:08 | 46.71322 | 1.04163 | 34970 ft | 421 kts | 186° |
| 2026-05-09 11:09 | 46.65454 | 1.03908 | 34965 ft | 422 kts | 186° |
| 2026-05-09 11:09 | 46.59589 | 1.03652 | 34967 ft | 422 kts | 186° |
| 2026-05-09 11:10 | 46.53718 | 1.03405 | 34956 ft | 422 kts | 185° |
| 2026-05-09 11:10 | 46.47839 | 1.04438 | 34968 ft | 431 kts | 172° |
| 2026-05-09 11:11 | 46.42002 | 1.06469 | 34962 ft | 431 kts | 172° |
| 2026-05-09 11:11 | 46.36153 | 1.08478 | 34960 ft | 431 kts | 172° |
| 2026-05-09 11:12 | 46.30282 | 1.10451 | 34964 ft | 430 kts | 172° |
| 2026-05-09 11:12 | 46.25397 | 1.12077 | 34969 ft | 429 kts | 172° |
| 2026-05-09 11:13 | 46.19536 | 1.14021 | 34968 ft | 429 kts | 172° |
| 2026-05-09 11:13 | 46.13695 | 1.15955 | 34972 ft | 427 kts | 172° |
| 2026-05-09 11:14 | 46.07820 | 1.17896 | 34965 ft | 426 kts | 172° |
| 2026-05-09 11:14 | 46.02052 | 1.19797 | 34958 ft | 424 kts | 172° |
| 2026-05-09 11:15 | 45.96263 | 1.21702 | 34959 ft | 423 kts | 171° |
| 2026-05-09 11:15 | 45.90524 | 1.23586 | 34960 ft | 422 kts | 171° |
| 2026-05-09 11:16 | 45.84758 | 1.25474 | 34977 ft | 422 kts | 172° |
| 2026-05-09 11:16 | 45.79070 | 1.27333 | 34969 ft | 422 kts | 172° |
| 2026-05-09 11:17 | 45.73307 | 1.29212 | 34961 ft | 421 kts | 172° |
| 2026-05-09 11:17 | 45.67600 | 1.31069 | 34974 ft | 421 kts | 172° |
| 2026-05-09 11:18 | 45.61889 | 1.32923 | 34978 ft | 421 kts | 172° |
| 2026-05-09 11:18 | 45.56179 | 1.34771 | 34967 ft | 420 kts | 172° |
| 2026-05-09 11:19 | 45.50475 | 1.36615 | 34973 ft | 420 kts | 172° |
| 2026-05-09 11:19 | 45.44739 | 1.38468 | 34968 ft | 419 kts | 172° |
| 2026-05-09 11:20 | 45.39049 | 1.40311 | 34972 ft | 419 kts | 172° |
| 2026-05-09 11:20 | 45.33318 | 1.42160 | 34965 ft | 419 kts | 172° |
| 2026-05-09 11:21 | 45.27635 | 1.43986 | 34971 ft | 419 kts | 172° |
| 2026-05-09 11:21 | 45.21949 | 1.45807 | 34967 ft | 419 kts | 172° |
| 2026-05-09 11:22 | 45.16262 | 1.47626 | 34964 ft | 419 kts | 172° |
| 2026-05-09 11:22 | 45.10504 | 1.49464 | 34958 ft | 418 kts | 172° |
| 2026-05-09 11:23 | 45.04830 | 1.51271 | 34965 ft | 417 kts | 172° |
| 2026-05-09 11:23 | 44.99157 | 1.53074 | 34948 ft | 418 kts | 173° |
| 2026-05-09 11:24 | 44.93485 | 1.54873 | 34961 ft | 418 kts | 173° |
| 2026-05-09 11:24 | 44.87848 | 1.56656 | 34971 ft | 418 kts | 173° |
| 2026-05-09 11:25 | 44.82168 | 1.58450 | 34967 ft | 419 kts | 173° |
| 2026-05-09 11:25 | 44.76437 | 1.60257 | 34968 ft | 419 kts | 173° |
| 2026-05-09 11:26 | 44.70740 | 1.62049 | 34958 ft | 419 kts | 173° |
| 2026-05-09 11:26 | 44.65051 | 1.63835 | 34964 ft | 419 kts | 173° |
| 2026-05-09 11:27 | 44.59353 | 1.65620 | 34959 ft | 419 kts | 173° |
| 2026-05-09 11:27 | 44.53677 | 1.67395 | 34964 ft | 418 kts | 173° |
| 2026-05-09 11:28 | 44.48010 | 1.69162 | 34973 ft | 417 kts | 173° |
| 2026-05-09 11:28 | 44.42313 | 1.70935 | 34976 ft | 416 kts | 173° |
| 2026-05-09 11:29 | 44.36654 | 1.72690 | 34968 ft | 415 kts | 173° |
| 2026-05-09 11:29 | 44.31932 | 1.74155 | 34971 ft | 414 kts | 173° |
| 2026-05-09 11:30 | 44.26287 | 1.75689 | 34974 ft | 411 kts | 176° |
| 2026-05-09 11:30 | 44.20641 | 1.76909 | 34964 ft | 411 kts | 176° |
| 2026-05-09 11:31 | 44.14988 | 1.78124 | 34971 ft | 411 kts | 176° |
| 2026-05-09 11:31 | 44.09305 | 1.79366 | 34967 ft | 411 kts | 176° |
| 2026-05-09 11:32 | 44.03697 | 1.80592 | 34961 ft | 411 kts | 176° |
| 2026-05-09 11:32 | 43.98043 | 1.81830 | 34961 ft | 411 kts | 176° |
| 2026-05-09 11:33 | 43.92387 | 1.82824 | 34965 ft | 408 kts | 180° |
| 2026-05-09 11:33 | 43.83885 | 1.83589 | 34961 ft | 408 kts | 180° |
| 2026-05-09 11:34 | 43.78181 | 1.84106 | 34965 ft | 408 kts | 180° |
| 2026-05-09 11:34 | 43.72501 | 1.84647 | 34951 ft | 409 kts | 180° |
| 2026-05-09 11:35 | 43.66821 | 1.85197 | 34953 ft | 409 kts | 180° |
| 2026-05-09 11:35 | 43.61156 | 1.85745 | 34944 ft | 408 kts | 180° |
| 2026-05-09 11:36 | 43.55484 | 1.86291 | 34951 ft | 409 kts | 180° |
| 2026-05-09 11:36 | 43.49797 | 1.86837 | 34950 ft | 409 kts | 180° |
| 2026-05-09 11:37 | 43.44112 | 1.87380 | 34949 ft | 410 kts | 180° |
| 2026-05-09 11:37 | 43.38413 | 1.87923 | 34935 ft | 410 kts | 179° |
| 2026-05-09 11:38 | 43.32708 | 1.88470 | 34945 ft | 411 kts | 179° |
| 2026-05-09 11:38 | 43.26989 | 1.89028 | 34947 ft | 412 kts | 179° |
| 2026-05-09 11:39 | 43.21255 | 1.89584 | 34938 ft | 413 kts | 179° |
| 2026-05-09 11:40 | 43.12557 | 1.90419 | 34949 ft | 414 kts | 179° |
| 2026-05-09 11:40 | 43.06792 | 1.90969 | 34908 ft | 415 kts | 179° |
| 2026-05-09 11:41 | 43.01032 | 1.91519 | 34937 ft | 415 kts | 179° |
| 2026-05-09 11:41 | 42.95230 | 1.92070 | 34937 ft | 414 kts | 179° |
| 2026-05-09 11:42 | 42.89478 | 1.92617 | 34940 ft | 414 kts | 179° |
| 2026-05-09 11:42 | 42.83714 | 1.93161 | 34947 ft | 415 kts | 179° |
| 2026-05-09 11:43 | 42.77963 | 1.93705 | 34945 ft | 414 kts | 179° |
| 2026-05-09 11:43 | 42.72160 | 1.94248 | 34489 ft | 412 kts | 179° |
| 2026-05-09 11:43 | 42.69334 | 1.94516 | 33586 ft | 414 kts | 179° |
| 2026-05-09 11:44 | 42.66451 | 1.94842 | 32945 ft | 415 kts | 175° |
| 2026-05-09 11:44 | 42.63588 | 1.95393 | 32199 ft | 415 kts | 174° |
| 2026-05-09 11:44 | 42.60697 | 1.95988 | 31464 ft | 415 kts | 174° |
| 2026-05-09 11:44 | 42.57835 | 1.96582 | 30714 ft | 417 kts | 174° |
| 2026-05-09 11:45 | 42.54956 | 1.97173 | 29905 ft | 420 kts | 174° |
| 2026-05-09 11:45 | 42.52059 | 1.97758 | 28956 ft | 422 kts | 174° |
| 2026-05-09 11:45 | 42.49150 | 1.98340 | 28043 ft | 424 kts | 174° |
| 2026-05-09 11:45 | 42.46219 | 1.98922 | 27104 ft | 426 kts | 174° |
| 2026-05-09 11:46 | 42.43241 | 1.99511 | 26143 ft | 429 kts | 174° |
| 2026-05-09 11:46 | 42.40291 | 2.00096 | 25462 ft | 427 kts | 174° |
| 2026-05-09 11:46 | 42.37347 | 2.00682 | 24739 ft | 426 kts | 174° |
| 2026-05-09 11:46 | 42.34418 | 2.01169 | 24033 ft | 422 kts | 176° |
| 2026-05-09 11:47 | 42.31475 | 2.01524 | 23285 ft | 428 kts | 177° |
| 2026-05-09 11:47 | 42.28492 | 2.01847 | 22525 ft | 433 kts | 177° |
| 2026-05-09 11:47 | 42.25499 | 2.02190 | 21791 ft | 429 kts | 176° |
| 2026-05-09 11:47 | 42.22505 | 2.02554 | 21084 ft | 424 kts | 176° |
| 2026-05-09 11:48 | 42.19587 | 2.02636 | 20397 ft | 418 kts | 188° |
| 2026-05-09 11:48 | 42.16834 | 2.01493 | 19867 ft | 411 kts | 202° |
| 2026-05-09 11:48 | 42.14361 | 1.99651 | 19406 ft | 406 kts | 216° |
| 2026-05-09 11:48 | 42.12225 | 1.97103 | 18997 ft | 416 kts | 221° |
| 2026-05-09 11:49 | 42.10088 | 1.94420 | 18522 ft | 422 kts | 220° |
| 2026-05-09 11:49 | 42.07937 | 1.91729 | 18021 ft | 421 kts | 221° |
| 2026-05-09 11:49 | 42.05854 | 1.89008 | 17523 ft | 416 kts | 222° |
| 2026-05-09 11:49 | 42.03785 | 1.86309 | 17058 ft | 411 kts | 222° |
| 2026-05-09 11:50 | 42.01708 | 1.83692 | 16602 ft | 408 kts | 220° |
| 2026-05-09 11:50 | 41.99636 | 1.81096 | 16148 ft | 405 kts | 221° |
| 2026-05-09 11:50 | 41.97557 | 1.78473 | 15710 ft | 403 kts | 221° |
| 2026-05-09 11:50 | 41.95505 | 1.75921 | 15277 ft | 402 kts | 219° |
| 2026-05-09 11:51 | 41.93300 | 1.73623 | 14837 ft | 400 kts | 214° |
| 2026-05-09 11:51 | 41.91804 | 1.72197 | 14557 ft | 397 kts | 213° |
| 2026-05-09 11:51 | 41.89504 | 1.70112 | 14127 ft | 392 kts | 212° |
| 2026-05-09 11:51 | 41.87260 | 1.68085 | 13691 ft | 387 kts | 212° |
| 2026-05-09 11:52 | 41.85074 | 1.66046 | 13219 ft | 378 kts | 212° |
| 2026-05-09 11:52 | 41.82940 | 1.64045 | 12766 ft | 366 kts | 213° |
| 2026-05-09 11:52 | 41.80919 | 1.62158 | 12373 ft | 349 kts | 213° |
| 2026-05-09 11:52 | 41.78934 | 1.60302 | 12000 ft | 333 kts | 213° |
| 2026-05-09 11:53 | 41.77103 | 1.58502 | 11645 ft | 319 kts | 212° |
| 2026-05-09 11:53 | 41.75322 | 1.56819 | 11307 ft | 308 kts | 212° |
| 2026-05-09 11:53 | 41.73591 | 1.55253 | 10978 ft | 295 kts | 204° |
| 2026-05-09 11:53 | 41.71689 | 1.54423 | 10731 ft | 281 kts | 189° |
| 2026-05-09 11:54 | 41.69787 | 1.53944 | 10535 ft | 274 kts | 186° |
| 2026-05-09 11:54 | 41.67943 | 1.53508 | 10296 ft | 265 kts | 190° |
| 2026-05-09 11:54 | 41.66163 | 1.53056 | 10046 ft | 255 kts | 188° |
| 2026-05-09 11:54 | 41.64448 | 1.52644 | 9816 ft | 247 kts | 187° |
| 2026-05-09 11:55 | 41.62774 | 1.52254 | 9582 ft | 244 kts | 189° |
| 2026-05-09 11:56 | 41.54453 | 1.50213 | 8507 ft | 243 kts | 178° |
| 2026-05-09 11:56 | 41.52774 | 1.50527 | 8308 ft | 241 kts | 167° |
| 2026-05-09 11:56 | 41.51134 | 1.50967 | 8099 ft | 241 kts | 168° |
| 2026-05-09 11:57 | 41.49480 | 1.51352 | 7902 ft | 241 kts | 168° |
| 2026-05-09 11:57 | 41.47831 | 1.51702 | 7686 ft | 240 kts | 167° |
| 2026-05-09 11:57 | 41.46188 | 1.52083 | 7472 ft | 240 kts | 168° |
| 2026-05-09 11:57 | 41.44549 | 1.52462 | 7278 ft | 239 kts | 167° |
| 2026-05-09 11:58 | 41.42909 | 1.52870 | 7079 ft | 241 kts | 167° |
| 2026-05-09 11:58 | 41.41253 | 1.53256 | 6854 ft | 242 kts | 167° |
| 2026-05-09 11:58 | 41.39583 | 1.53570 | 6648 ft | 241 kts | 166° |
| 2026-05-09 11:58 | 41.37937 | 1.53981 | 6454 ft | 241 kts | 166° |
| 2026-05-09 11:59 | 41.36282 | 1.54372 | 6222 ft | 242 kts | 165° |
| 2026-05-09 11:59 | 41.34612 | 1.54641 | 5977 ft | 246 kts | 181° |
| 2026-05-09 11:59 | 41.32945 | 1.53979 | 5759 ft | 247 kts | 200° |
| 2026-05-09 11:59 | 41.31415 | 1.53014 | 5494 ft | 246 kts | 201° |
| 2026-05-09 12:00 | 41.29888 | 1.52010 | 5252 ft | 243 kts | 203° |
| 2026-05-09 12:00 | 41.28348 | 1.51019 | 5005 ft | 244 kts | 202° |
| 2026-05-09 12:00 | 41.26801 | 1.50043 | 4783 ft | 246 kts | 200° |
| 2026-05-09 12:00 | 41.25275 | 1.49078 | 4541 ft | 241 kts | 202° |
| 2026-05-09 12:01 | 41.23906 | 1.47848 | 4247 ft | 244 kts | 229° |
| 2026-05-09 12:01 | 41.23183 | 1.45828 | 4051 ft | 236 kts | 251° |
| 2026-05-09 12:01 | 41.22647 | 1.43820 | 3834 ft | 226 kts | 247° |
| 2026-05-09 12:01 | 41.22075 | 1.41898 | 3601 ft | 221 kts | 246° |
| 2026-05-09 12:02 | 41.21522 | 1.40022 | 3393 ft | 216 kts | 246° |
| 2026-05-09 12:02 | 41.20980 | 1.38196 | 3218 ft | 209 kts | 247° |
| 2026-05-09 12:02 | 41.20468 | 1.36440 | 3094 ft | 199 kts | 246° |
| 2026-05-09 12:02 | 41.19969 | 1.34723 | 2842 ft | 199 kts | 247° |
| 2026-05-09 12:03 | 41.19485 | 1.33051 | 2591 ft | 189 kts | 246° |
| 2026-05-09 12:03 | 41.19012 | 1.31445 | 2377 ft | 184 kts | 248° |
| 2026-05-09 12:03 | 41.18556 | 1.29838 | 2145 ft | 187 kts | 249° |
| 2026-05-09 12:03 | 41.18103 | 1.28222 | 1854 ft | 184 kts | 247° |
| 2026-05-09 12:04 | 41.17667 | 1.26742 | 1675 ft | 166 kts | 241° |
| 2026-05-09 12:04 | 41.17211 | 1.25311 | 1411 ft | 169 kts | 250° |
| 2026-05-09 12:04 | 41.16806 | 1.23836 | 1227 ft | 171 kts | 247° |
| 2026-05-09 12:04 | 41.16380 | 1.22385 | 988 ft | 163 kts | 247° |
| 2026-05-09 12:05 | 41.15972 | 1.20983 | 728 ft | 161 kts | 246° |
| 2026-05-09 12:05 | 41.15574 | 1.19599 | 483 ft | 159 kts | 246° |
| 2026-05-09 12:05 | 41.15183 | 1.18245 | 285 ft | 156 kts | 248° |
| 2026-05-09 12:05 | 41.14825 | 1.17015 | 245 ft | 110 kts | 249° |
| 2026-05-09 12:06 | 41.14660 | 1.16445 | 245 ft | 53 kts | 249° |
| 2026-05-09 12:06 | 41.14555 | 1.16090 | 245 ft | 23 kts | 248° |
| 2026-05-09 12:06 | 41.14525 | 1.15943 | 245 ft | 10 kts | 288° |
| 2026-05-09 12:06 | 41.14579 | 1.15894 | 264 ft | 10 kts | 339° |
| 2026-05-09 12:07 | 41.14633 | 1.15866 | 243 ft | 7 kts | 339° |
| 2026-05-09 12:07 | 41.14674 | 1.15888 | 243 ft | 7 kts | 60° |
| 2026-05-09 12:07 | 41.14693 | 1.15950 | 243 ft | 7 kts | 69° |
| 2026-05-09 12:07 | 41.14710 | 1.16010 | 243 ft | 7 kts | 69° |
| 2026-05-09 12:08 | 41.14727 | 1.16068 | 243 ft | 7 kts | 69° |
| 2026-05-09 12:08 | 41.14744 | 1.16126 | 243 ft | 7 kts | 69° |
| 2026-05-09 12:08 | 41.14760 | 1.16182 | 243 ft | 6 kts | 69° |
| 2026-05-09 12:08 | 41.14792 | 1.16209 | 243 ft | 5 kts | 359° |
| 2026-05-09 12:09 | 41.14812 | 1.16202 | 243 ft | 2 kts | 341° |
| 2026-05-09 12:09 | 41.14825 | 1.16196 | 243 ft | 2 kts | 338° |
| 2026-05-09 12:09 | 41.14836 | 1.16190 | 243 ft | 2 kts | 339° |
| 2026-05-09 12:10 | 41.14846 | 1.16184 | 243 ft | 0 kts | 339° |